createdAt,value
2022-11-19T00:00:32.368Z,0.00
2022-11-19T00:01:32.399Z,0.00
2022-11-19T00:02:32.433Z,0.00
2022-11-19T00:03:32.331Z,0.00
2022-11-19T00:04:32.346Z,0.00
2022-11-19T00:05:32.296Z,0.00
2022-11-19T00:06:32.267Z,0.00
2022-11-19T00:07:32.325Z,0.00
2022-11-19T00:08:32.307Z,0.00
2022-11-19T00:09:32.251Z,0.00
2022-11-19T00:10:32.286Z,0.00
2022-11-19T00:11:32.266Z,0.00
2022-11-19T00:12:32.212Z,0.00
2022-11-19T00:13:32.202Z,0.00
2022-11-19T00:14:32.180Z,0.00
2022-11-19T00:15:32.193Z,0.00
2022-11-19T00:16:32.182Z,0.00
2022-11-19T00:17:32.163Z,0.00
2022-11-19T00:18:32.144Z,0.00
2022-11-19T00:19:32.140Z,0.00
2022-11-19T00:20:32.092Z,0.00
2022-11-19T00:21:32.144Z,0.00
2022-11-19T00:22:32.125Z,0.00
2022-11-19T00:23:32.080Z,0.00
2022-11-19T00:24:32.052Z,0.00
2022-11-19T00:25:32.051Z,0.00
2022-11-19T00:26:32.041Z,0.00
2022-11-19T00:27:32.039Z,0.00
2022-11-19T00:28:32.009Z,0.00
2022-11-19T00:29:32.026Z,0.00
2022-11-19T00:30:47.380Z,0.00
2022-11-19T00:31:32.970Z,0.00
2022-11-19T00:32:31.969Z,0.00
2022-11-19T00:33:32.005Z,0.00
2022-11-19T00:34:31.950Z,0.00
2022-11-19T00:35:31.948Z,0.00
2022-11-19T00:36:31.899Z,0.00
2022-11-19T00:37:31.884Z,0.00
2022-11-19T00:38:31.890Z,0.00
2022-11-19T00:39:32.502Z,0.00
2022-11-19T00:40:31.863Z,0.00
2022-11-19T00:41:31.812Z,0.00
2022-11-19T00:42:31.838Z,0.00
2022-11-19T00:43:31.814Z,0.00
2022-11-19T00:44:36.999Z,0.00
2022-11-19T00:45:33.102Z,0.00
2022-11-19T00:46:31.760Z,0.00
2022-11-19T00:47:31.728Z,0.00
2022-11-19T00:48:31.722Z,0.00
2022-11-19T00:49:31.722Z,0.00
2022-11-19T00:50:31.755Z,0.00
2022-11-19T00:51:31.704Z,0.00
2022-11-19T00:52:31.687Z,0.00
2022-11-19T00:53:31.671Z,0.00
2022-11-19T00:54:31.693Z,0.00
2022-11-19T00:55:31.666Z,0.00
2022-11-19T00:56:31.655Z,0.00
2022-11-19T00:57:31.614Z,0.00
2022-11-19T00:58:31.604Z,0.00
2022-11-19T00:59:31.589Z,0.00
2022-11-19T01:00:31.584Z,0.00
2022-11-19T01:01:31.648Z,0.00
2022-11-19T01:02:31.563Z,0.00
2022-11-19T01:03:31.533Z,0.00
2022-11-19T01:04:31.532Z,0.00
2022-11-19T01:05:31.559Z,0.00
2022-11-19T01:06:31.533Z,0.00
2022-11-19T01:07:31.541Z,0.00
2022-11-19T01:08:31.491Z,0.00
2022-11-19T01:09:31.553Z,0.00
2022-11-19T01:10:31.470Z,0.00
2022-11-19T01:11:31.451Z,0.00
2022-11-19T01:12:31.419Z,0.00
2022-11-19T01:13:31.419Z,0.00
2022-11-19T01:14:31.430Z,0.00
2022-11-19T01:15:31.402Z,0.00
2022-11-19T01:16:31.396Z,0.00
2022-11-19T01:17:31.409Z,0.00
2022-11-19T01:18:31.393Z,0.00
2022-11-19T01:19:31.349Z,0.00
2022-11-19T01:20:31.370Z,0.00
2022-11-19T01:21:31.305Z,0.00
2022-11-19T01:22:31.295Z,0.00
2022-11-19T01:23:31.269Z,0.00
2022-11-19T01:24:31.261Z,0.00
2022-11-19T01:25:31.279Z,0.00
2022-11-19T01:26:31.306Z,0.00
2022-11-19T01:27:31.201Z,0.00
2022-11-19T01:28:31.266Z,0.00
2022-11-19T01:29:31.199Z,0.00
2022-11-19T01:30:31.181Z,0.00
2022-11-19T01:31:31.258Z,0.00
2022-11-19T01:32:31.168Z,0.00
2022-11-19T01:33:31.137Z,0.00
2022-11-19T01:34:31.131Z,0.00
2022-11-19T01:35:31.131Z,0.00
2022-11-19T01:36:31.122Z,0.00
2022-11-19T01:37:31.169Z,0.00
2022-11-19T01:38:31.078Z,0.00
2022-11-19T01:39:31.056Z,0.00
2022-11-19T01:40:31.048Z,0.00
2022-11-19T01:41:31.026Z,0.00
2022-11-19T01:42:31.050Z,0.00
2022-11-19T01:43:31.032Z,0.00
2022-11-19T01:44:30.991Z,0.00
2022-11-19T01:45:30.982Z,0.00
2022-11-19T01:46:30.960Z,0.00
2022-11-19T01:47:30.961Z,0.00
2022-11-19T01:48:30.965Z,0.00
2022-11-19T01:49:30.931Z,0.00
2022-11-19T01:50:30.910Z,0.00
2022-11-19T01:51:30.890Z,0.00
2022-11-19T01:52:30.870Z,0.00
2022-11-19T01:53:30.883Z,0.00
2022-11-19T01:54:30.877Z,0.00
2022-11-19T01:55:30.905Z,0.00
2022-11-19T01:56:30.876Z,0.00
2022-11-19T01:57:30.816Z,0.00
2022-11-19T01:58:30.828Z,0.00
2022-11-19T01:59:30.797Z,0.00
2022-11-19T02:00:30.792Z,0.00
2022-11-19T02:01:30.843Z,0.00
2022-11-19T02:02:30.757Z,0.00
2022-11-19T02:03:30.748Z,0.00
2022-11-19T02:04:30.723Z,0.00
2022-11-19T02:05:30.728Z,0.00
2022-11-19T02:06:30.706Z,0.00
2022-11-19T02:07:30.880Z,0.00
2022-11-19T02:08:30.679Z,0.00
2022-11-19T02:09:30.685Z,0.00
2022-11-19T02:10:30.656Z,0.00
2022-11-19T02:11:30.632Z,0.00
2022-11-19T02:12:30.650Z,0.00
2022-11-19T02:13:30.607Z,0.00
2022-11-19T02:14:30.612Z,0.00
2022-11-19T02:15:30.609Z,0.00
2022-11-19T02:16:30.624Z,0.00
2022-11-19T02:17:30.583Z,0.00
2022-11-19T02:18:30.591Z,0.00
2022-11-19T02:19:30.527Z,0.00
2022-11-19T02:20:30.539Z,0.00
2022-11-19T02:21:30.527Z,0.00
2022-11-19T02:22:30.526Z,0.00
2022-11-19T02:23:30.473Z,0.00
2022-11-19T02:24:30.507Z,0.00
2022-11-19T02:25:30.439Z,0.00
2022-11-19T02:26:30.459Z,0.00
2022-11-19T02:27:30.440Z,0.00
2022-11-19T02:28:30.423Z,0.00
2022-11-19T02:29:30.409Z,0.00
2022-11-19T02:30:30.414Z,0.00
2022-11-19T02:31:30.361Z,0.00
2022-11-19T02:32:30.378Z,0.00
2022-11-19T02:33:30.380Z,0.00
2022-11-19T02:34:30.355Z,0.00
2022-11-19T02:35:30.323Z,0.00
2022-11-19T02:36:30.319Z,0.00
2022-11-19T02:37:30.292Z,0.00
2022-11-19T02:38:30.305Z,0.00
2022-11-19T02:39:30.262Z,0.00
2022-11-19T02:40:30.256Z,0.00
2022-11-19T02:41:30.260Z,0.00
2022-11-19T02:42:30.237Z,0.00
2022-11-19T02:43:30.233Z,0.00
2022-11-19T02:44:30.247Z,0.00
2022-11-19T02:45:30.185Z,0.00
2022-11-19T02:46:30.193Z,0.00
2022-11-19T02:47:30.237Z,0.00
2022-11-19T02:48:30.177Z,0.00
2022-11-19T02:49:30.181Z,0.00
2022-11-19T02:50:30.137Z,0.00
2022-11-19T02:51:30.091Z,0.00
2022-11-19T02:52:30.142Z,0.00
2022-11-19T02:53:30.069Z,0.00
2022-11-19T02:54:30.109Z,0.00
2022-11-19T02:55:30.074Z,0.00
2022-11-19T02:56:30.063Z,0.00
2022-11-19T02:57:30.049Z,0.00
2022-11-19T02:58:30.029Z,0.00
2022-11-19T02:59:30.070Z,0.00
2022-11-19T03:00:29.993Z,0.00
2022-11-19T03:01:30.055Z,0.00
2022-11-19T03:02:29.964Z,0.00
2022-11-19T03:03:29.933Z,0.00
2022-11-19T03:04:29.949Z,0.00
2022-11-19T03:05:29.918Z,0.00
2022-11-19T03:06:29.965Z,0.00
2022-11-19T03:07:29.991Z,0.00
2022-11-19T03:08:29.945Z,0.00
2022-11-19T03:09:29.866Z,0.00
2022-11-19T03:10:29.906Z,0.00
2022-11-19T03:11:29.863Z,0.00
2022-11-19T03:12:29.894Z,0.00
2022-11-19T03:13:29.831Z,0.00
2022-11-19T03:14:29.822Z,0.00
2022-11-19T03:15:29.804Z,0.00
2022-11-19T03:16:29.868Z,0.00
2022-11-19T03:17:29.805Z,0.00
2022-11-19T03:18:29.788Z,0.00
2022-11-19T03:19:29.748Z,0.00
2022-11-19T03:20:29.721Z,0.00
2022-11-19T03:21:29.695Z,0.00
2022-11-19T03:22:29.709Z,0.00
2022-11-19T03:23:29.705Z,0.00
2022-11-19T03:24:29.673Z,0.00
2022-11-19T03:25:29.697Z,0.00
2022-11-19T03:26:29.652Z,0.00
2022-11-19T03:27:29.703Z,0.00
2022-11-19T03:28:29.627Z,0.00
2022-11-19T03:29:29.604Z,0.00
2022-11-19T03:30:29.623Z,0.00
2022-11-19T03:31:29.604Z,0.00
2022-11-19T03:32:29.574Z,0.00
2022-11-19T03:33:29.550Z,0.00
2022-11-19T03:34:29.559Z,0.00
2022-11-19T03:35:29.552Z,0.00
2022-11-19T03:36:29.543Z,0.00
2022-11-19T03:37:29.499Z,0.00
2022-11-19T03:38:29.495Z,0.00
2022-11-19T03:39:29.493Z,0.00
2022-11-19T03:40:29.544Z,0.00
2022-11-19T03:41:29.452Z,0.00
2022-11-19T03:42:29.433Z,0.00
2022-11-19T03:43:29.411Z,0.00
2022-11-19T03:44:29.423Z,0.00
2022-11-19T03:45:29.455Z,0.00
2022-11-19T03:46:29.376Z,0.00
2022-11-19T03:47:29.367Z,0.00
2022-11-19T03:48:29.367Z,0.00
2022-11-19T03:49:29.385Z,0.00
2022-11-19T03:50:29.410Z,0.00
2022-11-19T03:51:29.327Z,0.00
2022-11-19T03:52:29.298Z,0.00
2022-11-19T03:53:29.305Z,0.00
2022-11-19T03:54:29.307Z,0.00
2022-11-19T03:55:29.280Z,0.00
2022-11-19T03:56:29.277Z,0.00
2022-11-19T03:57:29.265Z,0.00
2022-11-19T03:58:29.222Z,0.00
2022-11-19T03:59:30.151Z,0.00
2022-11-19T04:00:29.286Z,0.00
2022-11-19T04:01:29.252Z,0.00
2022-11-19T04:02:29.168Z,0.00
2022-11-19T04:03:29.151Z,0.00
2022-11-19T04:04:29.246Z,0.00
2022-11-19T04:05:29.153Z,0.00
2022-11-19T04:06:29.118Z,0.00
2022-11-19T04:07:29.186Z,0.00
2022-11-19T04:08:29.142Z,0.00
2022-11-19T04:09:29.084Z,0.00
2022-11-19T04:10:29.083Z,0.00
2022-11-19T04:12:00.349Z,0.00
2022-11-19T04:13:00.327Z,0.00
2022-11-19T04:14:00.313Z,0.00
2022-11-19T04:15:00.318Z,0.00
2022-11-19T04:16:00.332Z,0.00
2022-11-19T04:17:00.294Z,0.00
2022-11-19T04:18:00.282Z,0.00
2022-11-19T04:19:00.297Z,0.00
2022-11-19T04:20:00.237Z,0.00
2022-11-19T04:21:00.271Z,0.00
2022-11-19T04:22:00.202Z,0.00
2022-11-19T04:23:00.214Z,0.00
2022-11-19T04:24:00.224Z,0.00
2022-11-19T04:25:00.195Z,0.00
2022-11-19T04:26:00.164Z,0.00
2022-11-19T04:27:00.174Z,0.00
2022-11-19T04:28:00.197Z,0.00
2022-11-19T04:29:00.762Z,0.00
2022-11-19T04:30:00.134Z,0.00
2022-11-19T04:31:00.105Z,0.00
2022-11-19T04:32:00.123Z,0.00
2022-11-19T04:33:00.097Z,0.00
2022-11-19T04:34:00.038Z,0.00
2022-11-19T04:35:00.104Z,0.00
2022-11-19T04:36:00.044Z,0.00
2022-11-19T04:37:00.024Z,0.00
2022-11-19T04:37:59.996Z,0.00
2022-11-19T04:39:00.041Z,0.00
2022-11-19T04:40:00.037Z,0.00
2022-11-19T04:40:59.959Z,0.00
2022-11-19T04:41:59.935Z,0.00
2022-11-19T04:42:59.976Z,0.00
2022-11-19T04:43:59.996Z,0.00
2022-11-19T04:44:59.908Z,0.00
2022-11-19T04:45:59.890Z,0.00
2022-11-19T04:46:59.933Z,0.00
2022-11-19T04:47:59.956Z,0.00
2022-11-19T04:48:59.923Z,0.00
2022-11-19T04:49:59.858Z,0.00
2022-11-19T04:50:59.860Z,0.00
2022-11-19T04:51:59.803Z,0.00
2022-11-19T04:52:59.990Z,0.00
2022-11-19T04:53:59.870Z,0.00
2022-11-19T04:54:59.831Z,0.00
2022-11-19T04:55:59.779Z,0.00
2022-11-19T04:56:59.771Z,0.00
2022-11-19T04:57:59.738Z,0.00
2022-11-19T04:58:59.783Z,0.00
2022-11-19T04:59:59.741Z,0.00
2022-11-19T05:00:59.750Z,0.00
2022-11-19T05:01:59.719Z,0.00
2022-11-19T05:02:59.702Z,0.00
2022-11-19T05:03:59.646Z,0.00
2022-11-19T05:04:59.690Z,0.00
2022-11-19T05:05:59.632Z,0.00
2022-11-19T05:06:59.672Z,0.00
2022-11-19T05:07:59.622Z,0.00
2022-11-19T05:08:59.602Z,0.00
2022-11-19T05:09:59.599Z,0.00
2022-11-19T05:10:59.570Z,0.00
2022-11-19T05:11:59.568Z,0.00
2022-11-19T05:12:59.553Z,0.00
2022-11-19T05:13:59.555Z,0.00
2022-11-19T05:14:59.513Z,0.00
2022-11-19T05:15:59.541Z,0.00
2022-11-19T05:16:59.500Z,0.00
2022-11-19T05:17:59.521Z,0.00
2022-11-19T05:18:59.480Z,0.00
2022-11-19T05:19:59.478Z,0.00
2022-11-19T05:20:59.451Z,0.00
2022-11-19T05:21:59.420Z,0.00
2022-11-19T05:22:59.417Z,0.00
2022-11-19T05:23:59.424Z,0.00
2022-11-19T05:24:59.384Z,0.00
2022-11-19T05:25:59.404Z,0.00
2022-11-19T05:26:59.377Z,0.00
2022-11-19T05:27:59.341Z,0.00
2022-11-19T05:28:59.364Z,0.00
2022-11-19T05:29:59.346Z,0.00
2022-11-19T05:30:59.331Z,0.00
2022-11-19T05:31:59.294Z,0.00
2022-11-19T05:32:59.273Z,0.00
2022-11-19T05:33:59.289Z,0.00
2022-11-19T05:34:59.255Z,0.00
2022-11-19T05:35:59.299Z,0.00
2022-11-19T05:36:59.278Z,0.00
2022-11-19T05:37:59.211Z,0.00
2022-11-19T05:38:59.207Z,0.00
2022-11-19T05:39:59.187Z,0.00
2022-11-19T05:40:59.205Z,0.00
2022-11-19T05:41:59.167Z,0.00
2022-11-19T05:42:59.186Z,0.00
2022-11-19T05:43:59.126Z,0.00
2022-11-19T05:44:59.145Z,0.00
2022-11-19T05:45:59.177Z,0.00
2022-11-19T05:46:59.093Z,0.00
2022-11-19T05:47:59.101Z,0.00
2022-11-19T05:48:59.152Z,0.00
2022-11-19T05:49:59.069Z,0.00
2022-11-19T05:50:59.073Z,0.00
2022-11-19T05:51:59.065Z,0.00
2022-11-19T05:52:59.017Z,0.00
2022-11-19T05:53:59.028Z,0.00
2022-11-19T05:54:59.013Z,0.00
2022-11-19T05:55:58.999Z,0.00
2022-11-19T05:56:58.966Z,0.00
2022-11-19T05:57:58.948Z,0.00
2022-11-19T05:58:58.999Z,0.00
2022-11-19T05:59:58.924Z,0.00
2022-11-19T06:00:58.909Z,0.00
2022-11-19T06:01:58.936Z,0.00
2022-11-19T06:02:59.062Z,0.00
2022-11-19T06:03:58.873Z,0.00
2022-11-19T06:04:58.875Z,0.00
2022-11-19T06:05:58.857Z,0.00
2022-11-19T06:06:58.879Z,0.00
2022-11-19T06:07:58.848Z,0.00
2022-11-19T06:08:58.857Z,0.00
2022-11-19T06:09:58.801Z,0.00
2022-11-19T06:10:58.794Z,0.00
2022-11-19T06:11:58.779Z,0.00
2022-11-19T06:12:58.781Z,0.00
2022-11-19T06:13:58.759Z,0.00
2022-11-19T06:14:58.772Z,0.00
2022-11-19T06:15:58.749Z,0.00
2022-11-19T06:16:58.770Z,0.00
2022-11-19T06:17:58.679Z,0.00
2022-11-19T06:18:58.680Z,0.00
2022-11-19T06:19:58.661Z,0.00
2022-11-19T06:20:58.667Z,0.00
2022-11-19T06:21:58.633Z,0.00
2022-11-19T06:22:58.672Z,0.00
2022-11-19T06:23:58.681Z,0.00
2022-11-19T06:24:58.626Z,0.00
2022-11-19T06:25:58.600Z,0.00
2022-11-19T06:26:58.587Z,0.00
2022-11-19T06:27:58.554Z,0.00
2022-11-19T06:28:58.555Z,4.00
2022-11-19T06:29:58.533Z,0.00
2022-11-19T06:30:58.573Z,0.00
2022-11-19T06:31:58.585Z,4.00
2022-11-19T06:32:58.508Z,0.00
2022-11-19T06:33:58.494Z,4.00
2022-11-19T06:34:58.505Z,0.00
2022-11-19T06:35:58.479Z,4.00
2022-11-19T06:36:58.481Z,4.00
2022-11-19T06:37:58.434Z,8.00
2022-11-19T06:38:58.443Z,4.00
2022-11-19T06:39:58.437Z,4.00
2022-11-19T06:40:58.384Z,8.00
2022-11-19T06:41:58.405Z,8.00
2022-11-19T06:42:58.430Z,12.00
2022-11-19T06:43:58.413Z,12.00
2022-11-19T06:44:58.334Z,12.00
2022-11-19T06:45:58.340Z,16.00
2022-11-19T06:46:58.351Z,16.00
2022-11-19T06:47:58.356Z,20.00
2022-11-19T06:48:58.356Z,20.00
2022-11-19T06:49:58.587Z,24.00
2022-11-19T06:50:58.282Z,24.00
2022-11-19T06:51:58.288Z,32.00
2022-11-19T06:52:58.270Z,36.00
2022-11-19T06:53:58.279Z,36.00
2022-11-19T06:54:58.213Z,44.00
2022-11-19T06:55:58.232Z,40.00
2022-11-19T06:56:58.257Z,48.00
2022-11-19T06:57:58.249Z,52.00
2022-11-19T06:58:58.183Z,56.00
2022-11-19T06:59:58.169Z,60.00
2022-11-19T07:00:58.128Z,68.00
2022-11-19T07:01:58.196Z,68.00
2022-11-19T07:02:58.128Z,72.00
2022-11-19T07:03:58.116Z,76.00
2022-11-19T07:04:58.077Z,80.00
2022-11-19T07:05:58.133Z,84.00
2022-11-19T07:06:58.217Z,88.00
2022-11-19T07:08:02.854Z,96.00
2022-11-19T07:08:59.015Z,92.00
2022-11-19T07:10:53.969Z,100.00
2022-11-19T07:11:53.917Z,108.00
2022-11-19T07:12:53.853Z,116.00
2022-11-19T07:13:53.853Z,124.00
2022-11-19T07:14:53.971Z,128.00
2022-11-19T07:15:54.929Z,132.00
2022-11-19T07:16:53.864Z,136.00
2022-11-19T07:17:53.931Z,140.00
2022-11-19T07:18:53.803Z,144.00
2022-11-19T07:19:53.775Z,156.00
2022-11-19T07:20:53.745Z,164.00
2022-11-19T07:21:53.741Z,180.00
2022-11-19T07:22:58.961Z,188.00
2022-11-19T07:23:54.731Z,192.00
2022-11-19T07:24:53.692Z,192.00
2022-11-19T07:25:53.708Z,200.00
2022-11-19T07:26:53.797Z,204.00
2022-11-19T07:27:53.656Z,204.00
2022-11-19T07:29:04.616Z,204.00
2022-11-19T07:29:53.823Z,216.00
2022-11-19T07:30:54.019Z,224.00
2022-11-19T07:31:53.624Z,224.00
2022-11-19T07:32:53.627Z,224.00
2022-11-19T07:33:53.585Z,220.00
2022-11-19T07:34:53.632Z,220.00
2022-11-19T07:35:53.564Z,216.00
2022-11-19T07:36:53.564Z,212.00
2022-11-19T07:37:53.526Z,220.00
2022-11-19T07:38:53.605Z,232.00
2022-11-19T07:39:53.499Z,232.00
2022-11-19T07:40:53.515Z,240.00
2022-11-19T07:41:53.516Z,244.00
2022-11-19T07:42:53.491Z,252.00
2022-11-19T07:44:02.366Z,252.00
2022-11-19T07:44:54.999Z,248.00
2022-11-19T07:45:53.459Z,244.00
2022-11-19T07:46:53.472Z,240.00
2022-11-19T07:47:53.418Z,240.00
2022-11-19T07:48:53.421Z,244.00
2022-11-19T07:49:53.483Z,252.00
2022-11-19T07:50:56.426Z,264.00
2022-11-19T07:51:53.454Z,260.00
2022-11-19T07:52:53.390Z,268.00
2022-11-19T07:53:53.324Z,260.00
2022-11-19T07:55:05.589Z,264.00
2022-11-19T07:56:03.247Z,272.00
2022-11-19T07:57:02.202Z,280.00
2022-11-19T07:58:01.190Z,292.00
2022-11-19T07:58:53.516Z,304.00
2022-11-19T07:59:53.284Z,316.00
2022-11-19T08:00:53.329Z,324.00
2022-11-19T08:01:53.343Z,336.00
2022-11-19T08:02:53.354Z,336.00
2022-11-19T08:03:56.262Z,332.00
2022-11-19T08:04:53.170Z,332.00
2022-11-19T08:05:53.203Z,344.00
2022-11-19T08:06:53.258Z,340.00
2022-11-19T08:07:53.219Z,352.00
2022-11-19T08:08:53.152Z,364.00
2022-11-19T08:09:53.165Z,368.00
2022-11-19T08:10:53.139Z,384.00
2022-11-19T08:11:53.142Z,396.00
2022-11-19T08:12:53.123Z,424.00
2022-11-19T08:13:53.079Z,440.00
2022-11-19T08:14:53.073Z,444.00
2022-11-19T08:15:53.021Z,444.00
2022-11-19T08:16:53.022Z,448.00
2022-11-19T08:17:53.065Z,440.00
2022-11-19T08:18:53.031Z,448.00
2022-11-19T08:19:52.981Z,444.00
2022-11-19T08:20:52.995Z,448.00
2022-11-19T08:21:52.961Z,448.00
2022-11-19T08:22:53.022Z,444.00
2022-11-19T08:23:53.050Z,436.00
2022-11-19T08:24:52.991Z,436.00
2022-11-19T08:25:52.912Z,428.00
2022-11-19T08:26:52.902Z,412.00
2022-11-19T08:27:52.912Z,384.00
2022-11-19T08:28:52.883Z,380.00
2022-11-19T08:29:52.911Z,384.00
2022-11-19T08:30:52.871Z,388.00
2022-11-19T08:31:52.834Z,388.00
2022-11-19T08:32:52.830Z,392.00
2022-11-19T08:33:52.811Z,412.00
2022-11-19T08:34:52.812Z,452.00
2022-11-19T08:35:52.783Z,488.00
2022-11-19T08:36:52.822Z,520.00
2022-11-19T08:37:52.750Z,544.00
2022-11-19T08:38:52.743Z,560.00
2022-11-19T08:39:52.717Z,580.00
2022-11-19T08:40:52.703Z,576.00
2022-11-19T08:41:52.724Z,580.00
2022-11-19T08:42:52.731Z,580.00
2022-11-19T08:43:52.674Z,596.00
2022-11-19T08:44:52.673Z,608.00
2022-11-19T08:45:52.664Z,632.00
2022-11-19T08:46:52.645Z,656.00
2022-11-19T08:47:52.644Z,672.00
2022-11-19T08:48:52.643Z,684.00
2022-11-19T08:49:52.583Z,676.00
2022-11-19T08:50:52.588Z,652.00
2022-11-19T08:51:52.593Z,620.00
2022-11-19T08:52:52.569Z,608.00
2022-11-19T08:53:52.560Z,600.00
2022-11-19T08:54:52.553Z,604.00
2022-11-19T08:55:52.505Z,604.00
2022-11-19T08:56:52.515Z,600.00
2022-11-19T08:57:52.515Z,580.00
2022-11-19T08:58:52.513Z,564.00
2022-11-19T08:59:52.453Z,572.00
2022-11-19T09:00:52.491Z,600.00
2022-11-19T09:01:52.426Z,628.00
2022-11-19T09:02:52.446Z,644.00
2022-11-19T09:03:52.387Z,636.00
2022-11-19T09:04:52.407Z,628.00
2022-11-19T09:05:52.406Z,628.00
2022-11-19T09:06:52.385Z,632.00
2022-11-19T09:07:52.375Z,620.00
2022-11-19T09:08:52.367Z,596.00
2022-11-19T09:09:52.337Z,588.00
2022-11-19T09:10:52.387Z,592.00
2022-11-19T09:11:52.327Z,592.00
2022-11-19T09:12:52.316Z,588.00
2022-11-19T09:13:52.286Z,584.00
2022-11-19T09:14:52.259Z,584.00
2022-11-19T09:15:52.276Z,588.00
2022-11-19T09:16:52.268Z,600.00
2022-11-19T09:17:52.231Z,608.00
2022-11-19T09:18:52.229Z,604.00
2022-11-19T09:19:52.208Z,620.00
2022-11-19T09:20:52.176Z,624.00
2022-11-19T09:21:52.175Z,632.00
2022-11-19T09:22:52.151Z,628.00
2022-11-19T09:23:52.155Z,632.00
2022-11-19T09:24:52.139Z,628.00
2022-11-19T09:25:52.109Z,636.00
2022-11-19T09:26:53.155Z,640.00
2022-11-19T09:27:52.098Z,640.00
2022-11-19T09:28:52.085Z,644.00
2022-11-19T09:29:52.058Z,668.00
2022-11-19T09:30:52.068Z,720.00
2022-11-19T09:31:52.037Z,768.00
2022-11-19T09:32:52.038Z,792.00
2022-11-19T09:33:52.048Z,784.00
2022-11-19T09:34:51.998Z,792.00
2022-11-19T09:36:00.995Z,808.00
2022-11-19T09:36:59.724Z,828.00
2022-11-19T09:37:51.983Z,844.00
2022-11-19T09:38:51.983Z,836.00
2022-11-19T09:39:52.011Z,836.00
2022-11-19T09:40:51.921Z,836.00
2022-11-19T09:41:51.944Z,848.00
2022-11-19T09:42:52.061Z,860.00
2022-11-19T09:43:51.890Z,892.00
2022-11-19T09:44:51.869Z,940.00
2022-11-19T09:45:51.872Z,992.00
2022-11-19T09:46:51.823Z,1028.00
2022-11-19T09:47:51.812Z,1048.00
2022-11-19T09:48:51.840Z,1064.00
2022-11-19T09:49:51.918Z,1084.00
2022-11-19T09:50:53.437Z,1080.00
2022-11-19T09:51:51.795Z,1044.00
2022-11-19T09:52:51.755Z,968.00
2022-11-19T09:53:51.741Z,928.00
2022-11-19T09:54:51.711Z,868.00
2022-11-19T09:55:51.743Z,796.00
2022-11-19T09:56:51.759Z,744.00
2022-11-19T09:57:51.716Z,712.00
2022-11-19T09:58:51.673Z,696.00
2022-11-19T09:59:51.662Z,672.00
2022-11-19T10:00:51.706Z,652.00
2022-11-19T10:01:51.692Z,632.00
2022-11-19T10:02:51.694Z,628.00
2022-11-19T10:03:51.729Z,628.00
2022-11-19T10:04:51.574Z,652.00
2022-11-19T10:05:51.584Z,696.00
2022-11-19T10:06:51.584Z,760.00
2022-11-19T10:07:51.575Z,820.00
2022-11-19T10:08:51.543Z,892.00
2022-11-19T10:09:51.563Z,956.00
2022-11-19T10:10:51.516Z,1008.00
2022-11-19T10:11:51.500Z,1040.00
2022-11-19T10:12:51.489Z,1088.00
2022-11-19T10:13:55.175Z,1156.00
2022-11-19T10:14:51.472Z,1220.00
2022-11-19T10:15:51.508Z,1276.00
2022-11-19T10:16:51.473Z,1332.00
2022-11-19T10:17:51.553Z,1436.00
2022-11-19T10:18:51.541Z,1524.00
2022-11-19T10:19:51.707Z,1576.00
2022-11-19T10:20:51.439Z,1636.00
2022-11-19T10:21:51.370Z,1680.00
2022-11-19T10:22:56.966Z,1728.00
2022-11-19T10:23:52.354Z,1812.00
2022-11-19T10:24:51.324Z,1872.00
2022-11-19T10:25:51.342Z,1916.00
2022-11-19T10:26:51.321Z,1960.00
2022-11-19T10:27:51.325Z,2004.00
2022-11-19T10:28:51.296Z,2044.00
2022-11-19T10:29:51.324Z,2092.00
2022-11-19T10:30:51.350Z,2132.00
2022-11-19T10:31:51.245Z,2156.00
2022-11-19T10:32:51.254Z,2176.00
2022-11-19T10:33:51.289Z,2220.00
2022-11-19T10:34:51.184Z,2256.00
2022-11-19T10:35:51.205Z,2288.00
2022-11-19T10:36:51.163Z,2336.00
2022-11-19T10:37:51.166Z,2388.00
2022-11-19T10:38:51.460Z,2420.00
2022-11-19T10:39:51.165Z,2464.00
2022-11-19T10:40:51.122Z,2472.00
2022-11-19T10:41:51.116Z,2484.00
2022-11-19T10:42:51.085Z,2504.00
2022-11-19T10:43:51.085Z,2512.00
2022-11-19T10:44:51.075Z,2528.00
2022-11-19T10:45:51.057Z,2552.00
2022-11-19T10:46:51.040Z,2560.00
2022-11-19T10:47:51.016Z,2588.00
2022-11-19T10:48:51.036Z,2600.00
2022-11-19T10:49:51.029Z,2608.00
2022-11-19T10:50:50.989Z,2592.00
2022-11-19T10:51:51.009Z,2600.00
2022-11-19T10:52:51.009Z,2616.00
2022-11-19T10:53:50.956Z,2644.00
2022-11-19T10:54:50.960Z,2632.00
2022-11-19T10:55:54.406Z,2628.00
2022-11-19T10:56:50.904Z,2632.00
2022-11-19T10:57:50.911Z,2640.00
2022-11-19T10:58:50.888Z,2652.00
2022-11-19T10:59:50.867Z,2680.00
2022-11-19T11:00:50.917Z,2712.00
2022-11-19T11:01:50.846Z,2724.00
2022-11-19T11:02:50.831Z,2720.00
2022-11-19T11:03:50.843Z,2764.00
2022-11-19T11:04:50.869Z,2708.00
2022-11-19T11:05:50.800Z,2692.00
2022-11-19T11:06:50.769Z,2648.00
2022-11-19T11:07:51.230Z,2596.00
2022-11-19T11:08:50.768Z,2596.00
2022-11-19T11:09:50.769Z,2592.00
2022-11-19T11:10:50.729Z,2576.00
2022-11-19T11:11:50.705Z,2548.00
2022-11-19T11:12:50.729Z,2488.00
2022-11-19T11:13:50.669Z,2456.00
2022-11-19T11:14:50.690Z,2456.00
2022-11-19T11:15:50.689Z,2420.00
2022-11-19T11:16:50.628Z,2424.00
2022-11-19T11:17:50.666Z,2492.00
2022-11-19T11:18:50.612Z,2432.00
2022-11-19T11:19:50.619Z,2464.00
2022-11-19T11:20:50.602Z,2444.00
2022-11-19T11:21:50.610Z,2412.00
2022-11-19T11:22:50.550Z,2484.00
2022-11-19T11:23:50.590Z,2536.00
2022-11-19T11:24:50.561Z,2560.00
2022-11-19T11:25:50.559Z,2692.00
2022-11-19T11:26:50.501Z,2792.00
2022-11-19T11:27:50.512Z,2736.00
2022-11-19T11:28:50.492Z,2528.00
2022-11-19T11:29:50.731Z,2592.00
2022-11-19T11:30:50.452Z,2584.00
2022-11-19T11:31:50.453Z,2552.00
2022-11-19T11:32:50.444Z,2492.00
2022-11-19T11:33:50.403Z,2356.00
2022-11-19T11:34:50.410Z,2328.00
2022-11-19T11:35:50.465Z,2400.00
2022-11-19T11:36:50.373Z,2548.00
2022-11-19T11:37:50.407Z,2664.00
2022-11-19T11:38:50.333Z,2740.00
2022-11-19T11:39:50.325Z,2760.00
2022-11-19T11:40:56.246Z,2772.00
2022-11-19T11:42:05.501Z,2772.00
2022-11-19T11:42:51.314Z,2772.00
2022-11-19T11:43:50.278Z,2752.00
2022-11-19T11:44:50.272Z,2708.00
2022-11-19T11:45:50.336Z,2716.00
2022-11-19T11:46:50.237Z,2760.00
2022-11-19T11:47:59.655Z,2860.00
2022-11-19T11:49:04.724Z,2928.00
2022-11-19T11:49:51.270Z,2976.00
2022-11-19T11:50:50.189Z,3000.00
2022-11-19T11:51:50.263Z,3004.00
2022-11-19T11:52:50.298Z,3016.00
2022-11-19T11:53:50.211Z,3048.00
2022-11-19T11:54:50.143Z,3060.00
2022-11-19T11:55:50.119Z,3072.00
2022-11-19T11:56:50.102Z,3036.00
2022-11-19T11:57:50.160Z,2952.00
2022-11-19T11:58:50.090Z,2924.00
2022-11-19T11:59:50.056Z,2908.00
2022-11-19T12:00:50.070Z,2956.00
2022-11-19T12:01:50.024Z,2984.00
2022-11-19T12:02:50.126Z,2996.00
2022-11-19T12:03:55.149Z,2980.00
2022-11-19T12:04:51.000Z,2936.00
2022-11-19T12:05:50.023Z,2864.00
2022-11-19T12:06:49.971Z,2812.00
2022-11-19T12:07:49.964Z,2788.00
2022-11-19T12:08:49.971Z,2772.00
2022-11-19T12:09:49.944Z,2748.00
2022-11-19T12:10:49.942Z,2728.00
2022-11-19T12:11:49.934Z,2708.00
2022-11-19T12:12:49.893Z,2684.00
2022-11-19T12:13:49.885Z,2640.00
2022-11-19T12:14:49.900Z,2608.00
2022-11-19T12:15:49.870Z,2580.00
2022-11-19T12:16:49.843Z,2556.00
2022-11-19T12:17:49.850Z,2564.00
2022-11-19T12:18:49.894Z,2528.00
2022-11-19T12:19:49.780Z,2512.00
2022-11-19T12:20:49.826Z,2508.00
2022-11-19T12:21:49.789Z,2516.00
2022-11-19T12:22:49.795Z,2524.00
2022-11-19T12:23:49.745Z,2492.00
2022-11-19T12:24:49.784Z,2480.00
2022-11-19T12:25:49.724Z,2452.00
2022-11-19T12:26:49.686Z,2464.00
2022-11-19T12:27:49.694Z,2428.00
2022-11-19T12:28:49.731Z,2432.00
2022-11-19T12:29:49.796Z,2376.00
2022-11-19T12:30:49.655Z,2356.00
2022-11-19T12:31:49.661Z,2344.00
2022-11-19T12:32:49.618Z,2312.00
2022-11-19T12:33:49.628Z,2256.00
2022-11-19T12:34:49.635Z,2220.00
2022-11-19T12:35:49.637Z,2172.00
2022-11-19T12:36:49.745Z,2144.00
2022-11-19T12:37:49.610Z,2132.00
2022-11-19T12:38:49.526Z,2140.00
2022-11-19T12:39:49.554Z,2120.00
2022-11-19T12:40:49.576Z,2064.00
2022-11-19T12:41:49.496Z,1980.00
2022-11-19T12:42:49.480Z,1932.00
2022-11-19T12:43:49.491Z,1896.00
2022-11-19T12:44:49.509Z,1872.00
2022-11-19T12:45:49.481Z,1888.00
2022-11-19T12:46:49.419Z,1908.00
2022-11-19T12:47:49.419Z,1952.00
2022-11-19T12:48:49.504Z,2024.00
2022-11-19T12:49:49.408Z,2100.00
2022-11-19T12:50:49.438Z,2124.00